createdAt,value
2018-02-20T00:01:57.144Z,11.77
2018-02-20T00:04:25.371Z,10.00
2018-02-20T00:06:52.814Z,10.97
2018-02-20T00:09:20.276Z,9.90
2018-02-20T00:11:47.713Z,9.30
2018-02-20T00:14:15.155Z,9.67
2018-02-20T00:16:42.653Z,9.57
2018-02-20T00:19:10.122Z,9.30
2018-02-20T00:21:37.663Z,10.90
2018-02-20T00:24:05.113Z,10.47
2018-02-20T00:26:32.583Z,10.07
2018-02-20T00:29:00.040Z,9.40
2018-02-20T00:31:27.476Z,10.17
2018-02-20T00:33:54.920Z,10.53
2018-02-20T00:36:22.415Z,11.37
2018-02-20T00:38:49.865Z,10.70
2018-02-20T00:41:17.300Z,10.70
2018-02-20T00:43:44.776Z,9.90
2018-02-20T00:46:12.223Z,10.97
2018-02-20T00:48:39.651Z,11.20
2018-02-20T00:51:07.092Z,9.90
2018-02-20T00:53:35.292Z,10.50
2018-02-20T00:56:02.727Z,10.00
2018-02-20T00:58:31.059Z,10.50
2018-02-20T01:00:58.515Z,10.67
2018-02-20T01:03:26.172Z,11.73
2018-02-20T01:05:53.628Z,10.47
2018-02-20T01:08:21.092Z,10.77
2018-02-20T01:10:48.532Z,10.87
2018-02-20T01:13:15.968Z,10.50
2018-02-20T01:15:43.416Z,11.27
2018-02-20T01:18:10.913Z,10.70
2018-02-20T01:20:38.376Z,11.47
2018-02-20T01:23:05.936Z,10.43
2018-02-20T01:25:33.395Z,10.83
2018-02-20T01:28:00.856Z,11.27
2018-02-20T01:30:28.416Z,10.90
2018-02-20T01:32:55.870Z,10.20
2018-02-20T01:35:23.420Z,10.90
2018-02-20T01:37:50.870Z,11.50
2018-02-20T01:40:18.312Z,11.33
2018-02-20T01:42:45.752Z,9.83
2018-02-20T01:45:13.192Z,10.40
2018-02-20T01:47:41.423Z,9.97
2018-02-20T01:50:08.885Z,10.13
2018-02-20T01:52:36.327Z,10.47
2018-02-20T01:55:03.788Z,10.00
2018-02-20T01:57:31.228Z,9.10
2018-02-20T01:59:58.708Z,10.00
2018-02-20T02:02:26.151Z,8.53
2018-02-20T02:04:53.582Z,9.20
2018-02-20T02:07:21.073Z,10.53
2018-02-20T02:09:48.536Z,10.00
2018-02-20T02:12:15.988Z,10.17
2018-02-20T02:14:43.423Z,9.70
2018-02-20T02:17:10.860Z,10.30
2018-02-20T02:19:38.359Z,11.83
2018-02-20T02:22:05.801Z,10.03
2018-02-20T02:24:33.240Z,11.50
2018-02-20T02:27:00.728Z,12.10
2018-02-20T02:29:28.192Z,12.50
2018-02-20T02:31:55.630Z,12.00
2018-02-20T02:34:23.061Z,10.60
2018-02-20T02:36:51.285Z,12.37
2018-02-20T02:39:18.724Z,12.67
2018-02-20T02:41:46.176Z,12.33
2018-02-20T02:44:13.618Z,13.10
2018-02-20T02:46:41.666Z,12.00
2018-02-20T02:49:09.887Z,12.00
2018-02-20T02:51:37.324Z,11.60
2018-02-20T02:54:04.780Z,12.70
2018-02-20T02:56:32.215Z,12.37
2018-02-20T02:58:59.724Z,12.37
2018-02-20T03:01:27.668Z,12.50
2018-02-20T03:03:55.119Z,11.23
2018-02-20T03:06:22.563Z,12.30
2018-02-20T03:08:50.068Z,11.90
2018-02-20T03:11:17.627Z,12.60
2018-02-20T03:13:45.077Z,12.13
2018-02-20T03:16:12.528Z,11.77
2018-02-20T03:18:39.980Z,12.60
2018-02-20T03:21:07.431Z,13.00
2018-02-20T03:23:35.411Z,13.07
2018-02-20T03:26:02.874Z,13.43
2018-02-20T03:28:30.307Z,11.93
2018-02-20T03:30:57.747Z,11.80
2018-02-20T03:33:25.203Z,13.60
2018-02-20T03:35:52.697Z,13.23
2018-02-20T03:38:20.130Z,13.77
2018-02-20T03:40:47.568Z,11.97
2018-02-20T03:43:15.072Z,11.57
2018-02-20T03:45:42.523Z,12.53
2018-02-20T03:48:09.968Z,9.60
2018-02-20T03:50:37.411Z,9.93
2018-02-20T03:53:05.049Z,9.60
2018-02-20T03:55:33.259Z,8.83
2018-02-20T03:58:00.745Z,9.37
2018-02-20T04:00:28.295Z,9.43
2018-02-20T04:02:55.745Z,9.03
2018-02-20T04:05:23.178Z,8.33
2018-02-20T04:07:50.621Z,9.30
2018-02-20T04:10:18.822Z,9.07
2018-02-20T04:12:46.258Z,9.80
2018-02-20T04:15:13.744Z,8.90
2018-02-20T04:17:41.207Z,9.60
2018-02-20T04:20:08.747Z,8.50
2018-02-20T04:22:36.219Z,8.73
2018-02-20T04:25:03.660Z,8.60
2018-02-20T04:27:31.140Z,9.20
2018-02-20T04:29:58.595Z,7.30
2018-02-20T04:32:26.024Z,8.97
2018-02-20T04:34:53.504Z,8.67
2018-02-20T04:37:20.968Z,8.83
2018-02-20T04:39:48.429Z,8.00
2018-02-20T04:42:15.869Z,9.00
2018-02-20T04:44:43.309Z,8.37
2018-02-20T04:47:11.307Z,9.90
2018-02-20T04:49:38.746Z,8.80
2018-02-20T04:52:06.176Z,8.83
2018-02-20T04:54:33.676Z,9.20
2018-02-20T04:57:01.177Z,8.97
2018-02-20T04:59:29.410Z,8.40
2018-02-20T05:01:56.839Z,9.30
2018-02-20T05:04:24.315Z,8.03
2018-02-20T05:06:51.776Z,8.43
2018-02-20T05:09:20.264Z,9.97
2018-02-20T05:11:47.811Z,8.90
2018-02-20T05:14:15.268Z,8.90
2018-02-20T05:16:42.727Z,9.60
2018-02-20T05:19:10.188Z,10.37
2018-02-20T05:21:37.640Z,9.50
2018-02-20T05:24:05.099Z,8.80
2018-02-20T05:26:32.546Z,9.90
2018-02-20T05:28:59.995Z,11.13
2018-02-20T05:31:27.485Z,11.77
2018-02-20T05:33:55.032Z,13.47
2018-02-20T05:36:22.484Z,13.53
2018-02-20T05:38:49.924Z,14.93
2018-02-20T05:41:17.363Z,15.80
2018-02-20T05:43:44.804Z,15.40
2018-02-20T05:46:13.034Z,12.57
2018-02-20T05:48:40.474Z,13.00
2018-02-20T05:51:07.914Z,12.10
2018-02-20T05:53:35.357Z,10.73
2018-02-20T05:56:03.680Z,10.87
2018-02-20T05:58:31.127Z,10.33
2018-02-20T06:00:59.304Z,8.27
2018-02-20T06:03:26.767Z,10.37
2018-02-20T06:05:54.215Z,11.07
2018-02-20T06:08:21.668Z,10.90
2018-02-20T06:10:49.101Z,10.50
2018-02-20T06:13:16.600Z,10.60
2018-02-20T06:15:44.212Z,9.63
2018-02-20T06:18:11.716Z,10.30
2018-02-20T06:20:39.168Z,9.83
2018-02-20T06:23:06.657Z,11.10
2018-02-20T06:25:34.089Z,11.00
2018-02-20T06:28:01.544Z,10.07
2018-02-20T06:30:28.999Z,11.03
2018-02-20T06:32:56.451Z,9.60
2018-02-20T06:35:23.880Z,9.80
2018-02-20T06:37:51.312Z,10.13
2018-02-20T06:40:19.540Z,10.20
2018-02-20T06:42:47.003Z,11.10
2018-02-20T06:45:14.564Z,10.00
2018-02-20T06:47:42.124Z,11.50
2018-02-20T06:50:09.558Z,11.20
2018-02-20T06:52:36.996Z,11.10
2018-02-20T06:55:04.500Z,12.10
2018-02-20T06:57:31.945Z,10.70
2018-02-20T06:59:59.396Z,10.30
2018-02-20T07:02:26.858Z,11.87
2018-02-20T07:04:54.311Z,11.60
2018-02-20T07:07:21.768Z,11.00
2018-02-20T07:09:49.231Z,12.23
2018-02-20T07:12:16.682Z,12.57
2018-02-20T07:14:44.116Z,12.47
2018-02-20T07:17:11.560Z,15.07
2018-02-20T07:19:39.066Z,14.40
2018-02-20T07:22:06.531Z,13.40
2018-02-20T07:24:33.955Z,12.17
2018-02-20T07:27:01.436Z,13.97
2018-02-20T07:29:28.888Z,14.27
2018-02-20T07:31:56.332Z,15.30
2018-02-20T07:34:23.799Z,15.50
2018-02-20T07:36:51.243Z,17.33
2018-02-20T07:39:18.707Z,16.13
2018-02-20T07:41:46.148Z,17.00
2018-02-20T07:44:13.597Z,17.80
2018-02-20T07:46:41.060Z,16.97
2018-02-20T07:49:09.410Z,16.47
2018-02-20T07:51:37.620Z,17.07
2018-02-20T07:54:05.087Z,19.70
2018-02-20T07:56:32.535Z,16.33
2018-02-20T07:59:00.017Z,18.57
2018-02-20T08:01:27.456Z,17.40
2018-02-20T08:03:55.024Z,19.73
2018-02-20T08:06:22.464Z,16.67
2018-02-20T08:08:49.905Z,16.67
2018-02-20T08:11:17.395Z,17.77
2018-02-20T08:13:44.852Z,18.10
2018-02-20T08:16:12.291Z,16.67
2018-02-20T08:18:39.803Z,18.47
2018-02-20T08:21:07.232Z,15.87
2018-02-20T08:23:34.778Z,17.20
2018-02-20T08:26:02.237Z,19.20
2018-02-20T08:28:29.808Z,17.63
2018-02-20T08:30:57.253Z,18.30
2018-02-20T08:33:25.433Z,16.20
2018-02-20T08:35:52.992Z,19.17
2018-02-20T08:38:20.440Z,16.70
2018-02-20T08:40:47.884Z,17.43
2018-02-20T08:43:15.372Z,17.30
2018-02-20T08:45:42.921Z,16.60
2018-02-20T08:48:10.383Z,16.83
2018-02-20T08:50:37.823Z,15.40
2018-02-20T08:53:05.284Z,18.07
2018-02-20T08:55:32.726Z,17.40
2018-02-20T08:58:00.212Z,16.30
2018-02-20T09:00:27.639Z,17.60
2018-02-20T09:02:55.076Z,16.90
2018-02-20T09:05:22.520Z,16.93
2018-02-20T09:07:50.754Z,19.43
2018-02-20T09:10:18.184Z,20.10
2018-02-20T09:12:45.617Z,17.97
2018-02-20T09:15:13.112Z,17.50
2018-02-20T09:17:40.550Z,18.33
2018-02-20T09:20:08.019Z,17.93
2018-02-20T09:22:35.464Z,17.17
2018-02-20T09:25:02.940Z,19.13
2018-02-20T09:27:30.370Z,16.57
2018-02-20T09:29:57.851Z,30.47
2018-02-20T09:32:25.293Z,20.10
2018-02-20T09:34:52.751Z,18.57
2018-02-20T09:37:20.220Z,16.83
2018-02-20T09:39:47.651Z,17.00
2018-02-20T09:42:15.135Z,17.67
2018-02-20T09:44:42.592Z,15.53
2018-02-20T09:47:10.048Z,16.60
2018-02-20T09:49:37.504Z,17.50
2018-02-20T09:52:04.951Z,16.30
2018-02-20T09:54:32.416Z,17.00
2018-02-20T09:56:59.875Z,17.00
2018-02-20T09:59:27.327Z,16.10
2018-02-20T10:01:54.762Z,17.80
2018-02-20T10:04:22.248Z,16.63
2018-02-20T10:06:49.708Z,15.77
2018-02-20T10:09:17.881Z,17.33
2018-02-20T10:11:45.328Z,15.77
2018-02-20T10:14:13.607Z,15.40
2018-02-20T10:16:41.035Z,15.93
2018-02-20T10:19:08.723Z,16.80
2018-02-20T10:21:36.184Z,15.27
2018-02-20T10:24:03.641Z,17.17
2018-02-20T10:26:31.104Z,16.77
2018-02-20T10:28:58.671Z,14.87
2018-02-20T10:31:26.116Z,16.20
2018-02-20T10:33:53.561Z,16.87
2018-02-20T10:36:21.038Z,17.57
2018-02-20T10:38:48.627Z,18.00
2018-02-20T10:41:16.147Z,18.97
2018-02-20T10:43:43.607Z,17.00
2018-02-20T10:46:11.169Z,17.30
2018-02-20T10:48:38.612Z,18.80
2018-02-20T10:51:06.068Z,18.07
2018-02-20T10:53:33.536Z,16.57
2018-02-20T10:56:00.995Z,18.60
2018-02-20T10:58:28.423Z,16.57
2018-02-20T11:00:55.910Z,17.53
2018-02-20T11:03:23.339Z,17.63
2018-02-20T11:05:50.779Z,16.17
2018-02-20T11:08:18.275Z,17.80
2018-02-20T11:10:45.839Z,18.07
2018-02-20T11:13:13.321Z,15.30
2018-02-20T11:15:40.754Z,15.90
2018-02-20T11:18:08.203Z,16.70
2018-02-20T11:20:35.673Z,17.23
2018-02-20T11:23:03.108Z,15.30
2018-02-20T11:25:30.588Z,16.67
2018-02-20T11:27:58.137Z,18.10
2018-02-20T11:30:25.600Z,17.53
2018-02-20T11:32:53.091Z,16.93
2018-02-20T11:35:21.299Z,16.60
2018-02-20T11:37:48.736Z,16.33
2018-02-20T11:40:16.239Z,16.70
2018-02-20T11:42:43.672Z,16.20
2018-02-20T11:45:11.154Z,15.90
2018-02-20T11:47:38.587Z,16.83
2018-02-20T11:50:06.027Z,16.73
2018-02-20T11:52:33.503Z,16.97
2018-02-20T11:55:00.982Z,16.17
2018-02-20T11:57:28.412Z,17.10
2018-02-20T11:59:55.851Z,16.10
2018-02-20T12:02:23.292Z,14.50
2018-02-20T12:04:51.527Z,16.17
2018-02-20T12:07:18.985Z,17.30
2018-02-20T12:09:46.419Z,16.73
2018-02-20T12:12:13.891Z,17.07
2018-02-20T12:14:41.356Z,15.07
2018-02-20T12:17:08.916Z,15.10
2018-02-20T12:19:36.376Z,14.90
2018-02-20T12:22:03.820Z,15.03
2018-02-20T12:24:31.280Z,14.80
2018-02-20T12:26:58.724Z,15.27
2018-02-20T12:29:26.199Z,15.40
2018-02-20T12:31:53.648Z,16.77
2018-02-20T12:34:21.243Z,13.40
2018-02-20T12:36:48.784Z,14.53
2018-02-20T12:39:16.339Z,16.23
2018-02-20T12:41:43.890Z,15.50
2018-02-20T12:44:11.328Z,15.80
2018-02-20T12:46:38.802Z,15.10
2018-02-20T12:49:06.276Z,18.20
2018-02-20T12:51:33.724Z,16.50
2018-02-20T12:54:01.275Z,16.17
2018-02-20T12:56:28.836Z,16.90
2018-02-20T12:58:56.441Z,15.80
2018-02-20T13:01:24.679Z,14.10
2018-02-20T13:03:52.228Z,13.57
2018-02-20T13:06:20.195Z,13.20
2018-02-20T13:08:47.674Z,13.77
2018-02-20T13:11:15.215Z,14.93
2018-02-20T13:13:42.676Z,14.93
2018-02-20T13:16:10.130Z,13.57
2018-02-20T13:18:38.460Z,14.93
2018-02-20T13:21:06.680Z,15.67
2018-02-20T13:23:34.296Z,15.13
2018-02-20T13:26:02.497Z,15.87
2018-02-20T13:28:30.011Z,16.57
2018-02-20T13:30:58.279Z,16.90
2018-02-20T13:33:26.857Z,15.90
2018-02-20T13:35:54.405Z,17.30
2018-02-20T13:38:21.953Z,15.87
2018-02-20T13:40:49.403Z,16.77
2018-02-20T13:43:16.867Z,17.37
2018-02-20T13:45:44.336Z,16.77
2018-02-20T13:48:11.775Z,16.50
2018-02-20T13:50:39.235Z,16.53
2018-02-20T13:53:06.701Z,16.47
2018-02-20T13:55:34.260Z,18.70
2018-02-20T13:58:01.716Z,16.47
2018-02-20T14:00:29.168Z,17.93
2018-02-20T14:02:56.723Z,17.97
2018-02-20T14:05:24.182Z,16.70
2018-02-20T14:07:51.635Z,16.67
2018-02-20T14:10:19.091Z,16.27
2018-02-20T14:12:46.536Z,16.33
2018-02-20T14:15:13.980Z,17.23
2018-02-20T14:17:41.472Z,17.03
2018-02-20T14:20:08.938Z,17.27
2018-02-20T14:22:36.486Z,16.93
2018-02-20T14:25:03.939Z,17.30
2018-02-20T14:27:32.332Z,16.63
2018-02-20T14:29:59.768Z,16.73
2018-02-20T14:32:27.241Z,17.03
2018-02-20T14:34:54.691Z,18.00
2018-02-20T14:37:22.146Z,18.80
2018-02-20T14:39:49.579Z,18.13
2018-02-20T14:42:17.060Z,17.30
2018-02-20T14:44:44.495Z,16.63
2018-02-20T14:47:11.973Z,18.33
2018-02-20T14:49:39.429Z,18.47
2018-02-20T14:52:06.863Z,20.30
2018-02-20T14:54:34.350Z,18.77
2018-02-20T14:57:01.879Z,18.40
2018-02-20T14:59:30.028Z,17.57
2018-02-20T15:01:58.244Z,20.27
2018-02-20T15:04:25.715Z,19.57
2018-02-20T15:06:53.267Z,18.40
2018-02-20T15:09:20.727Z,20.27
2018-02-20T15:11:48.183Z,20.03
2018-02-20T15:14:15.640Z,21.77
2018-02-20T15:16:43.194Z,20.70
2018-02-20T15:19:10.753Z,20.97
2018-02-20T15:21:38.207Z,20.47
2018-02-20T15:24:05.641Z,20.50
2018-02-20T15:26:33.135Z,22.13
2018-02-20T15:29:00.572Z,21.03
2018-02-20T15:31:28.003Z,21.87
2018-02-20T15:33:55.464Z,21.07
2018-02-20T15:36:22.904Z,21.17
2018-02-20T15:38:51.142Z,21.50
2018-02-20T15:41:19.344Z,20.83
2018-02-20T15:43:47.681Z,20.20
2018-02-20T15:46:15.144Z,22.10
2018-02-20T15:48:43.307Z,21.30
2018-02-20T15:51:10.764Z,21.63
2018-02-20T15:53:38.220Z,22.80
2018-02-20T15:56:05.664Z,21.10
2018-02-20T15:58:33.139Z,19.77
2018-02-20T16:01:00.596Z,19.77
2018-02-20T16:03:28.040Z,21.37
2018-02-20T16:05:55.477Z,20.57
2018-02-20T16:08:22.920Z,19.80
2018-02-20T16:10:51.242Z,21.40
2018-02-20T16:13:18.696Z,21.77
2018-02-20T16:16:01.040Z,19.40
2018-02-20T16:18:29.246Z,21.70
2018-02-20T16:20:56.732Z,20.53
2018-02-20T16:23:24.191Z,19.23
2018-02-20T16:25:51.623Z,22.43
2018-02-20T16:28:19.092Z,22.13
2018-02-20T16:30:46.524Z,21.20
2018-02-20T16:33:13.956Z,21.47
2018-02-20T16:35:42.189Z,19.50
2018-02-20T16:38:09.624Z,22.10
2018-02-20T16:40:37.056Z,20.23
2018-02-20T16:43:04.553Z,20.30
2018-02-20T16:45:32.024Z,21.00
2018-02-20T16:47:59.462Z,19.80
2018-02-20T16:50:26.927Z,22.17
2018-02-20T16:52:54.374Z,20.10
2018-02-20T16:55:21.803Z,20.40
2018-02-20T16:57:49.251Z,20.10
2018-02-20T17:00:17.452Z,20.77
2018-02-20T17:02:44.931Z,22.30
2018-02-20T17:05:12.384Z,21.97
2018-02-20T17:07:39.831Z,20.70
2018-02-20T17:10:07.267Z,22.27
2018-02-20T17:12:34.768Z,22.40
2018-02-20T17:15:02.215Z,21.87
2018-02-20T17:17:29.771Z,22.37
2018-02-20T17:19:57.207Z,22.40
2018-02-20T17:22:24.664Z,21.00
2018-02-20T17:24:52.151Z,20.90
2018-02-20T17:27:19.584Z,20.57
2018-02-20T17:29:47.028Z,23.80
2018-02-20T17:32:14.527Z,22.03
2018-02-20T17:34:41.971Z,21.30
2018-02-20T17:37:09.435Z,21.60
2018-02-20T17:39:36.891Z,20.70
2018-02-20T17:42:04.344Z,22.60
2018-02-20T17:44:31.799Z,26.25
2018-02-20T17:46:59.259Z,25.07
2018-02-20T17:49:26.704Z,23.03
2018-02-20T17:51:54.167Z,23.93
2018-02-20T17:54:21.630Z,23.70
2018-02-20T17:56:49.072Z,22.63
2018-02-20T17:59:16.528Z,26.17
2018-02-20T18:01:43.959Z,24.00
2018-02-20T18:04:11.400Z,26.90
2018-02-20T18:06:39.607Z,25.10
2018-02-20T18:09:07.043Z,24.13
2018-02-20T18:11:34.476Z,25.90
2018-02-20T18:14:02.676Z,26.43
2018-02-20T18:16:30.117Z,24.30
2018-02-20T18:18:58.317Z,22.20
2018-02-20T18:21:25.753Z,28.52
2018-02-20T18:23:53.955Z,24.40
2018-02-20T18:26:21.424Z,22.03
2018-02-20T18:28:48.844Z,25.93
2018-02-20T18:31:16.273Z,37.70
2018-02-20T18:33:43.711Z,34.90
2018-02-20T18:36:11.164Z,28.37
2018-02-20T18:38:38.608Z,36.10
2018-02-20T18:41:06.047Z,31.50
2018-02-20T18:43:33.528Z,45.35
2018-02-20T18:46:00.961Z,29.47
2018-02-20T18:48:28.395Z,30.08
2018-02-20T18:50:56.604Z,29.50
2018-02-20T18:53:24.042Z,25.27
2018-02-20T18:55:51.475Z,32.27
2018-02-20T18:58:19.687Z,27.80
2018-02-20T19:00:47.126Z,31.98
2018-02-20T19:03:14.571Z,28.20
2018-02-20T19:05:42.778Z,24.40
2018-02-20T19:08:10.256Z,31.83
2018-02-20T19:10:37.695Z,28.53
2018-02-20T19:13:05.123Z,25.63
2018-02-20T19:15:32.568Z,24.60
2018-02-20T19:18:00.779Z,24.50
2018-02-20T19:20:28.211Z,24.50
2018-02-20T19:22:55.651Z,23.67
2018-02-20T19:25:23.855Z,26.10
2018-02-20T19:27:51.287Z,28.30
2018-02-20T19:30:19.503Z,32.37
2018-02-20T19:32:46.935Z,33.17
2018-02-20T19:35:14.395Z,31.50
2018-02-20T19:37:41.823Z,35.10
2018-02-20T19:40:10.020Z,33.57
2018-02-20T19:42:37.462Z,26.93
2018-02-20T19:45:05.672Z,26.80
2018-02-20T19:47:33.125Z,28.03
2018-02-20T19:50:00.580Z,28.37
2018-02-20T19:52:28.015Z,26.10
2018-02-20T19:54:55.444Z,25.20
2018-02-20T19:57:22.888Z,26.20
2018-02-20T19:59:50.335Z,33.97
2018-02-20T20:02:17.772Z,28.30
2018-02-20T20:04:45.216Z,30.47
2018-02-20T20:07:12.659Z,27.57
2018-02-20T20:09:40.096Z,28.07
2018-02-20T20:12:08.300Z,28.73
2018-02-20T20:14:35.744Z,25.90
2018-02-20T20:17:03.186Z,27.03
2018-02-20T20:19:31.384Z,29.93
2018-02-20T20:21:58.824Z,30.27
2018-02-20T20:24:26.288Z,29.13
2018-02-20T20:26:53.727Z,25.23
2018-02-20T20:29:21.936Z,30.93
2018-02-20T20:31:49.375Z,29.10
2018-02-20T20:34:16.812Z,27.83
2018-02-20T20:36:45.034Z,27.60
2018-02-20T20:39:12.469Z,28.17
2018-02-20T20:41:39.905Z,27.13
2018-02-20T20:44:08.112Z,26.30
2018-02-20T20:46:35.540Z,27.50
2018-02-20T20:49:02.992Z,27.47
2018-02-20T20:51:31.196Z,27.53
2018-02-20T20:53:58.644Z,26.80
2018-02-20T20:56:26.936Z,29.40
2018-02-20T20:58:54.371Z,27.07
2018-02-20T21:01:21.828Z,29.00
2018-02-20T21:03:50.021Z,27.50
2018-02-20T21:06:17.466Z,28.80
2018-02-20T21:08:44.900Z,34.47
2018-02-20T21:11:13.105Z,32.83
2018-02-20T21:13:40.587Z,33.83
2018-02-20T21:16:08.032Z,30.13
2018-02-20T21:18:35.464Z,32.33
2018-02-20T21:21:02.917Z,29.87
2018-02-20T21:23:30.370Z,30.63
2018-02-20T21:25:57.828Z,29.90
2018-02-20T21:28:25.262Z,28.70
2018-02-20T21:30:53.458Z,29.30
2018-02-20T21:33:20.917Z,45.03
2018-02-20T21:35:48.343Z,34.90
2018-02-20T21:38:16.546Z,36.33
2018-02-20T21:40:44.008Z,43.30
2018-02-20T21:43:11.441Z,34.20
2018-02-20T21:45:39.636Z,37.70
2018-02-20T21:48:07.071Z,43.63
2018-02-20T21:50:35.304Z,31.60
2018-02-20T21:53:02.744Z,32.90
2018-02-20T21:55:30.192Z,34.47
2018-02-20T21:57:57.620Z,32.37
2018-02-20T22:00:25.844Z,32.67
2018-02-20T22:02:53.308Z,33.70
2018-02-20T22:05:20.776Z,31.60
2018-02-20T22:07:48.240Z,31.40
2018-02-20T22:10:15.776Z,31.90
2018-02-20T22:12:43.211Z,32.53
2018-02-20T22:15:10.666Z,31.10
2018-02-20T22:17:38.150Z,34.10
2018-02-20T22:20:05.602Z,34.17
2018-02-20T22:22:33.048Z,34.03
2018-02-20T22:25:00.480Z,36.23
2018-02-20T22:27:27.927Z,35.40
2018-02-20T22:29:55.856Z,34.30
2018-02-20T22:32:23.412Z,33.97
2018-02-20T22:34:50.964Z,38.57
2018-02-20T22:37:18.516Z,37.80
2018-02-20T22:39:46.631Z,36.23
2018-02-20T22:42:14.062Z,35.00
2018-02-20T22:44:41.507Z,33.80
2018-02-20T22:47:08.959Z,32.60
2018-02-20T22:49:36.415Z,45.33
2018-02-20T22:52:03.871Z,42.43
2018-02-20T22:54:31.327Z,38.03
2018-02-20T22:59:32.703Z,38.83
2018-02-20T23:02:00.153Z,36.50
2018-02-20T23:04:27.588Z,37.20
2018-02-20T23:06:55.071Z,36.77
2018-02-20T23:09:22.640Z,33.57
2018-02-20T23:11:50.193Z,37.50
2018-02-20T23:14:17.643Z,39.57
2018-02-20T23:16:45.091Z,43.03
2018-02-20T23:19:12.522Z,38.70
2018-02-20T23:21:40.733Z,31.83
2018-02-20T23:24:08.189Z,35.23
2018-02-20T23:26:35.649Z,32.87
2018-02-20T23:29:03.076Z,33.50
2018-02-20T23:31:31.384Z,34.77
2018-02-20T23:33:58.821Z,32.80
2018-02-20T23:36:26.273Z,29.37
2018-02-20T23:38:53.752Z,29.97
2018-02-20T23:41:21.205Z,31.60
2018-02-20T23:43:48.647Z,29.83
2018-02-20T23:46:16.119Z,28.67
2018-02-20T23:48:43.564Z,26.80
2018-02-20T23:51:16.869Z,28.87
2018-02-20T23:53:44.316Z,27.60
2018-02-20T23:56:11.777Z,27.40
2018-02-20T23:58:39.252Z,27.00
